Al Ain International Airport
OMAL : now visible

Airfield :











YOU CAN JOIN US ON...

 
LOGIN :

Register | Disclaimer

   EN    FR    IT 

 









Legend :    VFR   Marginal VFR   IFR   Intensive IFR   Very Intensive IFR
Visi :
Ceiling :
>= 8 km
>= 3000ft
5 to 8 km
1000 to 3000 ft
1500m to 5 km
500 to 1000 ft
800 to 1500m
200 to 500 ft
< 800m
< 200 ft
Symbols :   Thunderstorms  Fog  Heavy snow  Heavy precipitations  Wind > 20 kt






- Airport Elevation : 869 ft
- IATA code : AAN


OMAL - Al Ain International

CURRENT METAR :
  • 271300Z 25004KT 170V300 9999 SCT045 42/12 Q1007 BECMG 32010KT

EXPIRED METARs :
  • 271200Z 24005KT 9999 FEW045 41/12 Q1007 BECMG 32010KT
  • 271100Z 31005KT 220V020 9999 FEW045 41/13 Q1008 NOSIG

TAF TAF OMAL
Valid from the 27 at 12:00 until the 28 at 18:00 UTC


271100Z 2712/2818 32010KT 8000 FEW045
BECMG 2718/2720 06006KT
BECMG 2800/2802 16014KT
BECMG 2809/2811 32014KT
PROB30
TEMPO 2811/2815 VRB15G25KT 4000 BLDU FEW045TCU
OMAE FIR / Asia



MET'MAP, your aeronautical weather chart ! - Copyright ORBIFLY December 2007 - Disclaimer

ORBIFLY MET'MAP TEAM :

Programming & Development : Alexandra Zaïnal
Concept & original design : Baudouin d'Aumeries
Assistance for programming : Marc-Olivier Méhu
Technical & hardware support : Manuel Goepfert

Contact : metmap@orbifly.com




SOURCES & CREDITS :

   NOAA       Earth
Advisory